Time;durP1;ratioP1;P1;durP2;ratioP2;P2;SDS_P1;SDS_P2;PMS_P1;PMS_P2;Temp;Humidity;BMP_temperature;BMP_pressure;BME280_temperature;BME280_humidity;BME280_pressure;Samples;Min_cycle;Max_cycle;Signal;HPM_P1;HPM_P2
2020/12/10 00:01:16;;;;;;;90.50;37.23;;;;;;;-1.15;100.00;100593.66;4990469;28;20398;-71
2020/12/10 00:03:42;;;;;;;92.80;36.43;;;;;;;-1.14;100.00;100598.88;5005929;28;20634;-71
2020/12/10 00:06:08;;;;;;;82.00;36.30;;;;;;;-1.17;100.00;100606.59;4990137;28;20088;-71
2020/12/10 00:08:35;;;;;;;85.10;35.67;;;;;;;-1.15;100.00;100593.66;5004510;28;20038;-72
2020/12/10 00:11:01;;;;;;;87.03;35.90;;;;;;;-1.20;100.00;100606.50;4988287;28;20035;-72
2020/12/10 00:13:27;;;;;;;90.83;36.90;;;;;;;-1.17;100.00;100601.41;4990215;28;20066;-73
2020/12/10 00:15:53;;;;;;;80.03;33.40;;;;;;;-1.20;100.00;100606.50;5005098;28;20610;-70
2020/12/10 00:18:19;;;;;;;85.53;35.90;;;;;;;-1.26;100.00;100602.88;4990054;28;20119;-69
2020/12/10 00:20:45;;;;;;;86.27;36.07;;;;;;;-1.28;100.00;100596.78;4988863;28;20586;-72
2020/12/10 00:23:11;;;;;;;83.63;33.27;;;;;;;-1.21;100.00;100596.09;5005000;28;20038;-70
2020/12/10 00:25:37;;;;;;;99.47;38.27;;;;;;;-1.20;100.00;100598.72;4988899;28;20039;-69
2020/12/10 00:28:03;;;;;;;89.13;36.13;;;;;;;-1.30;100.00;100599.31;5002947;28;20073;-70
2020/12/10 00:30:30;;;;;;;86.57;37.47;;;;;;;-1.32;100.00;100595.81;4989229;28;20484;-70
2020/12/10 00:32:56;;;;;;;104.67;41.30;;;;;;;-1.33;100.00;100586.31;5004429;28;20447;-71
2020/12/10 00:35:22;;;;;;;81.70;35.60;;;;;;;-1.32;100.00;100589.78;4989698;28;20038;-70
2020/12/10 00:37:48;;;;;;;94.53;36.03;;;;;;;-1.33;100.00;100594.06;4988012;28;20381;-71
2020/12/10 00:40:14;;;;;;;88.60;34.90;;;;;;;-1.35;100.00;100587.06;4987827;28;20034;-70
2020/12/10 00:42:40;;;;;;;99.00;37.10;;;;;;;-1.42;100.00;100581.75;5004200;28;20035;-71
2020/12/10 00:45:06;;;;;;;81.83;35.43;;;;;;;-1.44;100.00;100583.41;5004449;28;20198;-70
2020/12/10 00:47:33;;;;;;;83.77;37.53;;;;;;;-1.46;100.00;100584.22;5004539;28;20141;-71
2020/12/10 00:49:59;;;;;;;91.47;34.53;;;;;;;-1.44;100.00;100577.34;4988092;28;20046;-72
2020/12/10 00:52:25;;;;;;;78.17;33.23;;;;;;;-1.41;100.00;100582.63;4988937;28;20042;-71
2020/12/10 00:54:52;;;;;;;90.13;36.27;;;;;;;-1.35;100.00;100581.88;4989524;28;20436;-71
2020/12/10 00:57:18;;;;;;;83.23;36.07;;;;;;;-1.38;100.00;100580.09;4988813;28;20867;-71
2020/12/10 00:59:44;;;;;;;89.87;36.60;;;;;;;-1.36;100.00;100580.16;5003856;28;20038;-76
2020/12/10 01:02:10;;;;;;;79.80;32.37;;;;;;;-1.36;100.00;100574.97;4989077;28;20070;-73
2020/12/10 01:04:36;;;;;;;84.23;35.27;;;;;;;-1.35;100.00;100580.19;5000507;28;20042;-73
2020/12/10 01:07:03;;;;;;;84.27;36.20;;;;;;;-1.38;100.00;100567.16;5003729;28;20038;-70
2020/12/10 01:09:29;;;;;;;84.47;35.87;;;;;;;-1.37;100.00;100571.50;4988246;28;20112;-70
2020/12/10 01:11:55;;;;;;;93.73;37.70;;;;;;;-1.34;100.00;100571.59;4988238;28;20160;-74
2020/12/10 01:14:21;;;;;;;82.77;36.47;;;;;;;-1.33;100.00;100567.28;4992509;28;20657;-72
2020/12/10 01:16:48;;;;;;;86.33;36.07;;;;;;;-1.38;100.00;100561.97;5005925;28;20049;-74
2020/12/10 01:19:14;;;;;;;86.90;35.60;;;;;;;-1.40;100.00;100568.84;4992265;28;20050;-72
2020/12/10 01:21:41;;;;;;;76.83;33.53;;;;;;;-1.36;100.00;100567.19;4987513;28;20057;-70
2020/12/10 01:24:09;;;;;;;97.77;36.50;;;;;;;-1.35;100.00;100562.03;4989104;28;20093;-73
2020/12/10 01:26:35;;;;;;;90.93;35.33;;;;;;;-1.36;100.00;100567.19;5002739;28;20070;-74
2020/12/10 01:29:02;;;;;;;83.07;34.13;;;;;;;-1.35;100.00;100564.63;4988306;28;20097;-72
2020/12/10 01:31:28;;;;;;;88.53;35.97;;;;;;;-1.35;100.00;100559.44;5002171;28;20078;-70
2020/12/10 01:33:55;;;;;;;86.53;34.47;;;;;;;-1.27;100.00;100563.09;5009183;28;20125;-70
2020/12/10 01:36:23;;;;;;;85.87;36.77;;;;;;;-1.37;100.00;100558.53;5014629;23;20254;-68
2020/12/10 01:38:50;;;;;;;84.37;37.10;;;;;;;-1.44;100.00;100565.25;5011719;28;20322;-67
2020/12/10 01:41:17;;;;;;;90.07;36.57;;;;;;;-1.45;100.00;100560.94;4988414;28;20049;-67
2020/12/10 01:43:44;;;;;;;83.87;34.60;;;;;;;-1.42;100.00;100561.03;5007305;28;20049;-67
2020/12/10 01:46:10;;;;;;;77.17;34.33;;;;;;;-1.44;100.00;100556.63;5007152;28;20093;-67
2020/12/10 01:48:37;;;;;;;83.93;35.07;;;;;;;-1.46;100.00;100553.13;5005881;28;20116;-67
2020/12/10 01:51:03;;;;;;;90.23;36.33;;;;;;;-1.48;100.00;100549.63;5005452;28;20046;-68
2020/12/10 01:53:30;;;;;;;87.30;36.20;;;;;;;-1.50;100.00;100548.72;5007703;28;20121;-67
2020/12/10 01:55:56;;;;;;;89.70;37.23;;;;;;;-1.51;100.00;100540.06;5007757;28;20638;-68
2020/12/10 01:58:23;;;;;;;91.40;35.53;;;;;;;-1.51;100.00;100534.88;5009249;28;20034;-67
2020/12/10 02:00:51;;;;;;;92.50;36.40;;;;;;;-1.51;100.00;100534.00;5006439;28;20617;-67
2020/12/10 02:03:18;;;;;;;82.27;34.07;;;;;;;-1.50;100.00;100523.69;5006287;28;20093;-67
2020/12/10 02:05:47;;;;;;;90.80;34.60;;;;;;;-1.50;100.00;100527.97;5006385;28;20045;-67
2020/12/10 02:08:14;;;;;;;88.20;35.97;;;;;;;-1.49;100.00;100524.53;5006037;28;20685;-67
2020/12/10 02:10:41;;;;;;;85.77;37.10;;;;;;;-1.48;100.00;100531.47;5006457;28;20050;-67
2020/12/10 02:13:07;;;;;;;72.13;31.80;;;;;;;-1.45;100.00;100532.41;5006461;28;20065;-67
2020/12/10 02:15:34;;;;;;;86.43;35.97;;;;;;;-1.49;100.00;100532.31;5007029;28;20046;-67
2020/12/10 02:18:04;;;;;;;94.37;35.67;;;;;;;-1.51;100.00;100524.50;5005901;28;20077;-67
2020/12/10 02:20:32;;;;;;;81.47;34.50;;;;;;;-1.50;100.00;100513.31;4997766;28;20479;-67
2020/12/10 02:23:08;;;;;;;73.13;29.90;;;;;;;-1.51;100.00;100515.88;5005685;28;20041;-67
2020/12/10 02:25:35;;;;;;;83.63;35.50;;;;;;;-1.56;100.00;100514.84;5005867;28;20034;-67
2020/12/10 02:28:10;;;;;;;83.60;36.00;;;;;;;-1.56;100.00;100512.28;5006031;28;20041;-67
2020/12/10 02:30:37;;;;;;;78.70;34.37;;;;;;;-1.58;100.00;100511.34;5006273;28;20033;-68
2020/12/10 02:33:05;;;;;;;82.70;31.63;;;;;;;-1.55;100.00;100501.06;4989482;28;20042;-67
2020/12/10 02:35:32;;;;;;;79.00;31.20;;;;;;;-1.56;100.00;100502.78;5005868;28;20096;-68
2020/12/10 02:37:59;;;;;;;92.37;33.93;;;;;;;-1.52;100.00;100502.00;5006892;28;20437;-67
2020/12/10 02:40:29;;;;;;;72.40;31.20;;;;;;;-1.53;100.00;100500.25;5005925;28;20111;-67
2020/12/10 02:42:59;;;;;;;79.63;35.47;;;;;;;-1.46;100.00;100501.28;5007034;28;20046;-68
2020/12/10 02:45:25;;;;;;;78.87;33.03;;;;;;;-1.51;100.00;100508.97;5007301;28;20104;-68
2020/12/10 02:47:52;;;;;;;83.57;33.20;;;;;;;-1.55;100.00;100493.28;5007383;28;20050;-67
2020/12/10 02:50:18;;;;;;;85.33;33.50;;;;;;;-1.62;100.00;100494.84;5006129;28;20066;-67
2020/12/10 02:52:45;;;;;;;87.53;34.33;;;;;;;-1.63;100.00;100492.22;5005669;28;20042;-68
2020/12/10 02:55:11;;;;;;;87.07;34.90;;;;;;;-1.63;100.00;100485.31;5005565;28;20049;-68
2020/12/10 02:57:37;;;;;;;86.27;35.37;;;;;;;-1.60;100.00;100484.50;5005414;28;20038;-67
2020/12/10 03:00:05;;;;;;;84.40;37.03;;;;;;;-1.61;100.00;100477.59;5005008;28;20033;-67
2020/12/10 03:02:31;;;;;;;94.43;38.97;;;;;;;-1.63;100.00;100474.09;5009441;28;20115;-67
2020/12/10 03:04:57;;;;;;;85.30;36.87;;;;;;;-1.61;100.00;100472.41;5005328;28;20121;-67
2020/12/10 03:07:23;;;;;;;85.83;35.30;;;;;;;-1.60;100.00;100461.19;5009490;28;20042;-67
2020/12/10 03:09:49;;;;;;;96.67;35.87;;;;;;;-1.57;100.00;100469.94;5011063;28;20540;-67
2020/12/10 03:12:15;;;;;;;77.57;34.33;;;;;;;-1.57;100.00;100463.91;5009302;28;20038;-68
2020/12/10 03:14:42;;;;;;;93.20;36.83;;;;;;;-1.55;100.00;100462.22;5011191;28;20041;-67
2020/12/10 03:17:08;;;;;;;91.70;36.00;;;;;;;-1.56;100.00;100458.75;5011291;28;20092;-67
2020/12/10 03:19:34;;;;;;;86.23;37.40;;;;;;;-1.52;100.00;100446.72;5010192;28;20042;-67
2020/12/10 03:22:00;;;;;;;90.83;37.63;;;;;;;-1.60;100.00;100454.31;5009089;28;20044;-67
2020/12/10 03:24:27;;;;;;;85.37;35.30;;;;;;;-1.56;100.00;100438.03;5010669;28;20084;-67
2020/12/10 03:26:54;;;;;;;98.80;38.27;;;;;;;-1.60;100.00;100451.72;5009779;28;20073;-67
2020/12/10 03:29:20;;;;;;;89.07;38.37;;;;;;;-1.57;100.00;100444.03;5009736;28;20548;-67
2020/12/10 03:31:46;;;;;;;101.47;39.23;;;;;;;-1.62;100.00;100434.41;5009515;28;20046;-67
2020/12/10 03:34:13;;;;;;;93.43;35.40;;;;;;;-1.55;100.00;100438.91;5009092;28;20405;-67
2020/12/10 03:36:54;;;;;;;96.83;38.70;;;;;;;-1.60;100.00;100428.41;5010358;28;20457;-67
2020/12/10 03:39:22;;;;;;;91.70;39.67;;;;;;;-1.62;100.00;100413.66;5010310;28;20580;-67
2020/12/10 03:41:49;;;;;;;98.03;39.77;;;;;;;-1.62;100.00;100411.09;5016124;28;20561;-67
2020/12/10 03:44:16;;;;;;;86.60;37.27;;;;;;;-1.62;100.00;100405.91;5010087;28;20046;-67
2020/12/10 03:46:42;;;;;;;92.10;36.13;;;;;;;-1.54;100.00;100414.75;5009584;28;20050;-67
2020/12/10 03:49:08;;;;;;;97.40;37.17;;;;;;;-1.57;100.00;100407.78;5010996;28;20529;-67
2020/12/10 03:51:34;;;;;;;100.20;37.17;;;;;;;-1.62;100.00;100408.50;5010311;28;20069;-67
2020/12/10 03:54:01;;;;;;;97.43;37.27;;;;;;;-1.62;100.00;100408.50;5010902;28;20042;-68
2020/12/10 03:56:27;;;;;;;92.20;38.20;;;;;;;-1.61;100.00;100403.34;5010438;28;20101;-68
2020/12/10 03:58:53;;;;;;;94.50;38.73;;;;;;;-1.61;100.00;100398.16;5009105;28;20041;-68
2020/12/10 04:01:19;;;;;;;93.17;39.83;;;;;;;-1.56;100.00;100406.94;5009420;28;20084;-68
2020/12/10 04:03:46;;;;;;;92.50;38.17;;;;;;;-1.65;100.00;100398.94;5010589;28;20046;-68
2020/12/10 04:06:12;;;;;;;106.93;40.43;;;;;;;-1.70;100.00;100403.13;5010529;28;20697;-68
2020/12/10 04:08:38;;;;;;;95.37;35.73;;;;;;;-1.65;100.00;100400.66;5009808;28;20095;-68
2020/12/10 04:11:04;;;;;;;104.50;39.10;;;;;;;-1.70;100.00;100400.53;5009055;28;20113;-68
2020/12/10 04:13:31;;;;;;;94.57;38.87;;;;;;;-1.69;100.00;100404.88;4993527;28;20046;-68
2020/12/10 04:16:00;;;;;;;95.67;36.63;;;;;;;-1.72;100.00;100400.50;5010539;28;20034;-68
2020/12/10 04:18:26;;;;;;;90.93;36.13;;;;;;;-1.71;100.00;100404.84;5009564;28;20116;-67
2020/12/10 04:20:52;;;;;;;108.00;38.83;;;;;;;-1.75;100.00;100412.50;5008805;28;20049;-68
2020/12/10 04:23:18;;;;;;;94.50;38.03;;;;;;;-1.76;100.00;100414.22;5010244;28;20038;-68
2020/12/10 04:25:52;;;;;;;92.53;36.60;;;;;;;-1.72;100.00;100413.44;5008674;28;20041;-68
2020/12/10 04:28:18;;;;;;;92.25;35.80;;;;;;;-1.70;100.00;100429.91;5009146;28;20030;-68
2020/12/10 04:30:45;;;;;;;89.23;35.43;;;;;;;-1.68;100.00;100431.63;5007342;28;20034;-68
2020/12/10 04:33:11;;;;;;;89.13;36.43;;;;;;;-1.71;100.00;100430.72;5009745;28;20061;-68
2020/12/10 04:35:38;;;;;;;87.23;36.37;;;;;;;-1.69;100.00;100433.34;5008094;28;20046;-68
2020/12/10 04:38:04;;;;;;;99.20;36.60;;;;;;;-1.71;100.00;100433.31;5008403;28;20046;-68
2020/12/10 04:40:31;;;;;;;77.80;32.40;;;;;;;-1.67;100.00;100441.19;5009395;28;20065;-68
2020/12/10 04:42:59;;;;;;;80.27;33.90;;;;;;;-1.65;100.00;100444.69;5009655;28;20042;-68
2020/12/10 04:45:25;;;;;;;90.83;34.80;;;;;;;-1.55;100.00;100436.31;5005126;28;20038;-68
2020/12/10 04:47:52;;;;;;;91.47;34.30;;;;;;;-1.56;100.00;100439.75;5010014;28;20388;-68
2020/12/10 04:50:24;;;;;;;90.43;35.70;;;;;;;-1.56;100.00;100444.91;4989810;28;20037;-68
2020/12/10 04:52:54;;;;;;;99.37;36.40;;;;;;;-1.61;100.00;100441.31;5007408;28;20098;-68
2020/12/10 04:55:20;;;;;;;102.40;35.97;;;;;;;-1.60;100.00;100445.66;5008198;28;20104;-68
2020/12/10 04:57:47;;;;;;;85.17;34.80;;;;;;;-1.64;100.00;100444.72;5013254;28;20052;-68
2020/12/10 05:00:16;;;;;;;99.37;37.70;;;;;;;-1.65;100.00;100436.91;5006852;28;20038;-68
2020/12/10 05:02:45;;;;;;;95.63;39.03;;;;;;;-1.64;100.00;100446.44;4993900;28;20470;-68
2020/12/10 05:05:30;;;;;;;95.30;35.37;;;;;;;-1.64;100.00;100443.84;4988153;28;20724;-68
2020/12/10 05:07:58;;;;;;;107.17;39.93;;;;;;;-1.67;100.00;100451.56;5007345;28;20038;-68
2020/12/10 05:10:24;;;;;;;99.30;39.07;;;;;;;-1.70;100.00;100454.91;5007255;28;20038;-68
2020/12/10 05:12:51;;;;;;;90.20;35.33;;;;;;;-1.68;100.00;100452.38;5009246;28;20129;-68
2020/12/10 05:15:31;;;;;;;90.30;35.23;;;;;;;-1.65;100.00;100453.34;5006108;28;20065;-68
2020/12/10 05:18:12;;;;;;;89.93;36.73;;;;;;;-1.64;100.00;100449.91;5001162;28;20065;-68
2020/12/10 05:20:43;;;;;;;102.20;40.67;;;;;;;-1.61;100.00;100457.75;5006794;28;20115;-68
2020/12/10 05:23:09;;;;;;;89.00;38.07;;;;;;;-1.67;100.00;100457.59;5002648;28;20038;-68
2020/12/10 05:25:44;;;;;;;95.73;38.63;;;;;;;-1.67;100.00;100457.59;5005191;28;20129;-68
2020/12/10 05:28:10;;;;;;;102.43;40.60;;;;;;;-1.74;100.00;100450.50;5008058;28;20030;-68
2020/12/10 05:30:36;;;;;;;88.67;34.93;;;;;;;-1.73;100.00;100453.13;5007635;28;20100;-68
2020/12/10 05:33:21;;;;;;;99.00;36.80;;;;;;;-1.75;100.00;100453.94;5006872;28;20057;-68
2020/12/10 05:35:47;;;;;;;88.57;36.15;;;;;;;-1.78;100.00;100454.72;5002285;28;20073;-68
2020/12/10 05:38:13;;;;;;;87.67;33.90;;;;;;;-1.77;100.00;100450.41;5007901;28;20038;-68
2020/12/10 05:40:39;;;;;;;107.07;39.20;;;;;;;-1.70;100.00;100460.09;5008024;28;20069;-68
2020/12/10 05:43:06;;;;;;;95.17;35.27;;;;;;;-1.76;100.00;100463.44;5010231;28;20042;-68
2020/12/10 05:45:39;;;;;;;87.90;35.27;;;;;;;-1.76;100.00;100454.78;5009849;28;20040;-68
2020/12/10 05:48:05;;;;;;;97.20;35.13;;;;;;;-1.75;100.00;100447.06;5010296;28;20045;-68
2020/12/10 05:50:33;;;;;;;90.20;32.47;;;;;;;-1.73;100.00;100452.25;5009794;28;20044;-68
2020/12/10 05:53:04;;;;;;;81.63;32.87;;;;;;;-1.71;100.00;100446.28;5008469;28;20057;-68
2020/12/10 05:55:31;;;;;;;92.53;36.10;;;;;;;-1.73;100.00;100453.13;5026492;28;20042;-68
2020/12/10 05:57:57;;;;;;;86.50;33.40;;;;;;;-1.74;100.00;100446.22;5016075;28;20033;-68
2020/12/10 06:00:24;;;;;;;88.27;36.10;;;;;;;-1.76;100.00;100453.06;5006774;28;20037;-68
2020/12/10 06:02:50;;;;;;;90.40;36.47;;;;;;;-1.75;100.00;100448.75;5007399;28;20041;-68
2020/12/10 06:05:17;;;;;;;87.57;35.90;;;;;;;-1.73;100.00;100450.53;5019308;28;20103;-68
2020/12/10 06:07:59;;;;;;;77.57;34.70;;;;;;;-1.72;100.00;100443.66;5013158;28;20056;-68
2020/12/10 06:10:25;;;;;;;79.60;34.30;;;;;;;-1.68;100.00;100460.13;5015479;28;20045;-69
2020/12/10 06:12:52;;;;;;;94.97;35.37;;;;;;;-1.65;100.00;100442.97;5007973;28;20100;-68
2020/12/10 06:15:23;;;;;;;79.20;33.37;;;;;;;-1.70;100.00;100435.06;5007332;28;20515;-68
2020/12/10 06:18:17;;;;;;;85.43;35.97;;;;;;;-1.72;100.00;100443.66;5007900;28;20691;-68
2020/12/10 06:20:45;;;;;;;85.97;33.17;;;;;;;-1.72;100.00;100447.13;5008083;28;20038;-68
2020/12/10 06:23:23;;;;;;;90.73;33.73;;;;;;;-1.71;100.00;100438.50;5016245;28;20506;-68
2020/12/10 06:25:50;;;;;;;84.73;34.33;;;;;;;-1.72;100.00;100444.53;5008828;28;20049;-68
2020/12/10 06:28:23;;;;;;;90.30;34.83;;;;;;;-1.73;100.00;100453.13;5021005;28;20045;-68
2020/12/10 06:31:06;;;;;;;83.57;35.50;;;;;;;-1.74;100.00;100456.56;5007153;28;20510;-68
2020/12/10 06:33:40;;;;;;;88.87;35.70;;;;;;;-1.75;100.00;100453.94;4994238;28;20048;-68
2020/12/10 06:36:21;;;;;;;88.30;34.90;;;;;;;-1.73;100.00;100457.44;5005887;28;20042;-68
2020/12/10 06:38:48;;;;;;;92.87;34.23;;;;;;;-1.73;100.00;100460.03;5010186;28;20045;-68
2020/12/10 06:41:14;;;;;;;98.93;35.23;;;;;;;-1.74;100.00;100459.16;5011687;28;20042;-68
2020/12/10 06:43:40;;;;;;;89.17;36.27;;;;;;;-1.74;100.00;100456.56;5011066;28;20103;-68
2020/12/10 06:46:06;;;;;;;90.03;33.70;;;;;;;-1.73;100.00;100457.44;5010895;28;20061;-68
2020/12/10 06:48:53;;;;;;;86.50;37.60;;;;;;;-1.76;100.00;100466.03;5011864;28;21040;-68
2020/12/10 06:51:20;;;;;;;88.03;39.47;;;;;;;-1.78;100.00;100462.50;5010664;28;20133;-68
2020/12/10 06:53:58;;;;;;;91.87;34.87;;;;;;;-1.74;100.00;100456.56;5017378;28;20477;-68
2020/12/10 06:56:25;;;;;;;94.73;35.00;;;;;;;-1.72;100.00;100456.59;5012922;28;20050;-68
2020/12/10 06:58:54;;;;;;;81.13;33.70;;;;;;;-1.72;100.00;100444.53;5008878;28;20046;-68
2020/12/10 07:01:35;;;;;;;89.90;35.97;;;;;;;-1.70;100.00;100452.31;4999531;28;20042;-69
2020/12/10 07:04:13;;;;;;;90.03;33.00;;;;;;;-1.66;100.00;100456.75;5014576;28;20100;-68
2020/12/10 07:06:39;;;;;;;89.47;34.27;;;;;;;-1.64;100.00;100451.63;5010519;28;20164;-68
2020/12/10 07:09:10;;;;;;;93.53;35.57;;;;;;;-1.65;100.00;100448.16;5011237;28;20046;-69
2020/12/10 07:11:38;;;;;;;94.10;33.20;;;;;;;-1.66;100.00;100449.00;5017913;28;20041;-68
2020/12/10 07:14:25;;;;;;;78.70;30.87;;;;;;;-1.64;100.00;100455.09;5029456;28;20099;-68
2020/12/10 07:16:53;;;;;;;83.53;34.50;;;;;;;-1.62;100.00;100448.22;4992523;28;20134;-69
2020/12/10 07:19:20;;;;;;;91.17;34.60;;;;;;;-1.64;100.00;100464.56;5005888;28;20042;-68
2020/12/10 07:21:46;;;;;;;83.80;35.23;;;;;;;-1.64;100.00;100462.84;5009567;28;20038;-68
2020/12/10 07:24:12;;;;;;;84.53;32.87;;;;;;;-1.69;100.00;100459.25;5013544;28;20557;-68
2020/12/10 07:26:39;;;;;;;80.47;32.03;;;;;;;-1.70;100.00;100454.91;5009897;28;20042;-68
2020/12/10 07:29:06;;;;;;;78.90;31.80;;;;;;;-1.64;100.00;100461.97;5011124;28;20045;-68
2020/12/10 07:31:32;;;;;;;89.97;35.73;;;;;;;-1.71;100.00;100455.75;5016642;28;20030;-68
2020/12/10 07:33:59;;;;;;;83.47;31.17;;;;;;;-1.69;100.00;100456.66;5010200;28;20050;-68
2020/12/10 07:36:31;;;;;;;84.07;34.13;;;;;;;-1.71;100.00;100453.16;5008699;28;20038;-68
2020/12/10 07:38:58;;;;;;;77.67;31.80;;;;;;;-1.69;100.00;100451.50;5008820;28;20434;-68
2020/12/10 07:41:24;;;;;;;83.27;32.27;;;;;;;-1.66;100.00;100446.41;5010123;28;20403;-68
2020/12/10 07:43:53;;;;;;;75.43;32.43;;;;;;;-1.65;100.00;100449.88;5021431;28;20042;-68
2020/12/10 07:46:19;;;;;;;80.67;30.73;;;;;;;-1.65;100.00;100455.06;5007767;28;20076;-68
2020/12/10 07:48:48;;;;;;;74.13;32.47;;;;;;;-1.62;100.00;100455.13;4997801;28;20041;-68
2020/12/10 07:51:21;;;;;;;80.63;30.80;;;;;;;-1.59;100.00;100450.91;5015699;28;20038;-68
2020/12/10 07:53:48;;;;;;;90.70;33.60;;;;;;;-1.65;100.00;100445.56;5000175;23;545029;-70
2020/12/10 07:56:22;;;;;;;84.97;32.57;;;;;;;-1.65;100.00;100447.28;5004340;28;20038;-70
2020/12/10 07:59:01;;;;;;;77.50;31.60;;;;;;;-1.68;100.00;100447.19;5007925;28;20074;-70
2020/12/10 08:01:34;;;;;;;74.90;29.37;;;;;;;-1.67;100.00;100454.16;4981083;28;20031;-70
2020/12/10 08:04:12;;;;;;;75.32;32.83;;;;;;;-1.66;100.00;100449.00;5003895;28;20056;-70
2020/12/10 08:06:39;;;;;;;82.03;32.30;;;;;;;-1.70;100.00;100450.63;4985496;28;20569;-70
2020/12/10 08:09:10;;;;;;;92.37;35.23;;;;;;;-1.68;100.00;100444.59;4995487;28;20046;-70
2020/12/10 08:11:53;;;;;;;80.20;31.87;;;;;;;-1.67;100.00;100448.97;5008875;28;20026;-70
2020/12/10 08:14:23;;;;;;;81.77;32.60;;;;;;;-1.68;100.00;100436.81;4990096;28;20042;-70
2020/12/10 08:16:49;;;;;;;78.83;32.13;;;;;;;-1.65;100.00;100448.16;4979071;28;20558;-70
2020/12/10 08:19:18;;;;;;;68.97;30.07;;;;;;;-1.60;100.00;100443.06;4990098;28;20054;-70
2020/12/10 08:21:46;;;;;;;91.20;34.47;;;;;;;-1.57;100.00;100435.41;4988156;28;20042;-70
2020/12/10 08:24:13;;;;;;;85.20;33.57;;;;;;;-1.58;100.00;100431.94;4993643;28;20038;-70
2020/12/10 08:26:40;;;;;;;77.07;30.10;;;;;;;-1.57;100.00;100432.81;4995753;28;20038;-70
2020/12/10 08:29:07;;;;;;;86.77;33.27;;;;;;;-1.62;100.00;100432.69;4999786;28;20046;-69
2020/12/10 08:31:34;;;;;;;84.17;33.23;;;;;;;-1.60;100.00;100422.34;4976815;28;20061;-70
2020/12/10 08:34:00;;;;;;;88.77;34.27;;;;;;;-1.59;100.00;100421.53;5000292;28;20655;-70
2020/12/10 08:36:32;;;;;;;82.50;32.77;;;;;;;-1.54;100.00;100425.09;4996247;28;20049;-70
2020/12/10 08:39:03;;;;;;;84.13;30.53;;;;;;;-1.51;100.00;100415.69;5007316;28;20037;-72
2020/12/10 08:41:32;;;;;;;92.80;35.13;;;;;;;-1.52;100.00;100426.88;4973547;28;20265;-71
2020/12/10 08:44:08;;;;;;;88.13;32.27;;;;;;;-1.52;100.00;100431.19;4986524;28;20049;-71
2020/12/10 08:46:35;;;;;;;83.73;34.83;;;;;;;-1.51;100.00;100423.47;4985899;28;20042;-72
2020/12/10 08:49:21;;;;;;;89.07;32.90;;;;;;;-1.47;100.00;100424.41;4987873;28;20050;-71
2020/12/10 08:51:50;;;;;;;85.13;31.87;;;;;;;-1.44;100.00;100425.34;4985751;28;20046;-71
2020/12/10 08:54:16;;;;;;;85.80;33.00;;;;;;;-1.47;100.00;100420.09;4986569;28;20077;-72
2020/12/10 08:56:42;;;;;;;88.53;32.90;;;;;;;-1.42;100.00;100417.63;4985986;28;20109;-72
2020/12/10 08:59:08;;;;;;;90.60;34.57;;;;;;;-1.47;100.00;100412.34;4987516;28;20100;-69
2020/12/10 09:01:35;;;;;;;92.07;34.37;;;;;;;-1.49;100.00;100416.63;4987511;28;20069;-69
2020/12/10 09:04:02;;;;;;;81.47;33.43;;;;;;;-1.53;100.00;100412.19;4974644;28;20457;-70
2020/12/10 09:06:33;;;;;;;81.77;30.83;;;;;;;-1.46;100.00;100415.78;4986149;28;20507;-69
2020/12/10 09:09:00;;;;;;;78.20;31.43;;;;;;;-1.47;100.00;100409.75;4969656;28;20049;-70
2020/12/10 09:11:26;;;;;;;95.53;33.03;;;;;;;-1.45;100.00;100413.25;4986795;28;20146;-69
2020/12/10 09:13:53;;;;;;;83.47;32.67;;;;;;;-1.46;100.00;100418.38;4986699;28;20058;-69
2020/12/10 09:16:19;;;;;;;91.53;33.43;;;;;;;-1.47;100.00;100409.75;4986620;28;20042;-69
2020/12/10 09:18:45;;;;;;;78.77;33.83;;;;;;;-1.43;100.00;100397.72;4985683;28;20133;-69
2020/12/10 09:21:12;;;;;;;80.67;33.67;;;;;;;-1.49;100.00;100398.47;4984973;28;20400;-70
2020/12/10 09:23:44;;;;;;;82.17;31.47;;;;;;;-1.53;100.00;100398.34;4985779;28;20125;-69
2020/12/10 09:26:11;;;;;;;78.13;29.93;;;;;;;-1.49;100.00;100405.38;4982876;28;20038;-70
2020/12/10 09:28:38;;;;;;;89.03;33.00;;;;;;;-1.47;100.00;100401.09;4986760;28;20116;-69
2020/12/10 09:31:05;;;;;;;81.40;32.37;;;;;;;-1.50;100.00;100406.22;4984519;28;20512;-69
2020/12/10 09:33:31;;;;;;;77.33;30.93;;;;;;;-1.50;100.00;100403.63;4985380;28;20034;-70
2020/12/10 09:35:57;;;;;;;85.70;30.70;;;;;;;-1.53;100.00;100391.44;4990601;28;20081;-69
2020/12/10 09:38:24;;;;;;;79.83;29.97;;;;;;;-1.49;100.00;100389.81;4985823;28;20116;-69
2020/12/10 09:40:50;;;;;;;80.90;32.33;;;;;;;-1.50;100.00;100396.72;5001256;28;20528;-69
2020/12/10 09:43:16;;;;;;;82.23;33.90;;;;;;;-1.48;100.00;100389.00;4968282;28;20409;-69
2020/12/10 09:45:47;;;;;;;73.03;30.83;;;;;;;-1.42;100.00;100389.13;4969759;28;20119;-70
2020/12/10 09:48:13;;;;;;;73.20;28.07;;;;;;;-1.43;100.00;100387.34;4969879;28;20046;-69
2020/12/10 09:50:39;;;;;;;76.70;28.53;;;;;;;-1.45;100.00;100387.31;4985661;28;20043;-70
2020/12/10 09:53:19;;;;;;;79.27;27.73;;;;;;;-1.46;100.00;100383.00;4986883;28;20042;-70
2020/12/10 09:58:23;;;;;;;73.50;30.57;;;;;;;-1.60;100.00;100380.91;4986790;28;20795;-69
2020/12/10 10:00:50;;;;;;;66.27;27.67;;;;;;;-1.58;100.00;100387.03;4985504;28;20121;-69
2020/12/10 10:03:20;;;;;;;80.60;29.03;;;;;;;-1.62;100.00;100374.81;4987060;28;20053;-70
2020/12/10 10:05:52;;;;;;;78.30;27.23;;;;;;;-1.66;100.00;100375.59;4954691;28;20050;-69
2020/12/10 10:08:21;;;;;;;70.20;25.30;;;;;;;-1.69;100.00;100381.56;4987266;28;20073;-70
2020/12/10 10:10:47;;;;;;;76.00;28.50;;;;;;;-1.66;100.00;100368.69;4984801;28;20138;-69
2020/12/10 10:13:13;;;;;;;70.90;26.20;;;;;;;-1.64;100.00;100381.69;4986874;28;20046;-69
2020/12/10 10:15:41;;;;;;;68.83;26.10;;;;;;;-1.65;100.00;100378.22;4985613;28;20550;-69
2020/12/10 10:18:07;;;;;;;66.93;26.37;;;;;;;-1.65;100.00;100382.53;4986538;28;20060;-69
2020/12/10 10:20:33;;;;;;;66.07;27.77;;;;;;;-1.64;100.00;100379.97;4986106;28;20050;-70
2020/12/10 10:22:59;;;;;;;58.20;24.13;;;;;;;-1.65;100.00;100382.53;4984857;28;20041;-69
2020/12/10 10:25:25;;;;;;;69.77;25.50;;;;;;;-1.61;100.00;100386.94;4976453;28;20147;-69
2020/12/10 10:27:53;;;;;;;73.53;27.10;;;;;;;-1.63;100.00;100380.84;4986224;28;20046;-70
2020/12/10 10:30:23;;;;;;;68.47;26.80;;;;;;;-1.67;100.00;100373.84;4986251;28;20066;-69
2020/12/10 10:32:49;;;;;;;61.47;25.30;;;;;;;-1.67;100.00;100381.63;4985099;28;20120;-69
2020/12/10 10:35:15;;;;;;;59.57;24.27;;;;;;;-1.70;100.00;100378.09;4986333;28;20129;-69
2020/12/10 10:37:42;;;;;;;65.73;26.30;;;;;;;-1.66;100.00;100370.41;4986489;28;20066;-69
2020/12/10 10:40:08;;;;;;;62.83;27.67;;;;;;;-1.63;100.00;100368.75;4984682;28;20069;-69
2020/12/10 10:42:35;;;;;;;63.10;25.27;;;;;;;-1.60;100.00;100367.94;4984984;28;20515;-69
2020/12/10 10:45:01;;;;;;;53.97;22.60;;;;;;;-1.56;100.00;100356.84;4985301;28;20578;-69
2020/12/10 10:47:29;;;;;;;54.53;23.40;;;;;;;-1.52;100.00;100363.84;4986393;28;20042;-69
2020/12/10 10:49:56;;;;;;;66.73;24.73;;;;;;;-1.49;100.00;100363.91;4986124;28;20515;-69
2020/12/10 10:52:22;;;;;;;66.37;26.47;;;;;;;-1.46;100.00;100348.44;4984677;28;20037;-69
2020/12/10 10:54:49;;;;;;;59.37;24.67;;;;;;;-1.53;100.00;100347.41;4973749;28;20065;-69
2020/12/10 10:57:16;;;;;;;70.63;27.20;;;;;;;-1.57;100.00;100348.19;4971432;28;20144;-69
2020/12/10 10:59:42;;;;;;;64.47;24.30;;;;;;;-1.56;100.00;100346.47;4986510;28;20096;-69
2020/12/10 11:02:08;;;;;;;62.70;24.63;;;;;;;-1.56;100.00;100342.16;4985455;28;20503;-69
2020/12/10 11:04:34;;;;;;;64.80;26.37;;;;;;;-1.55;100.00;100330.97;4986565;28;20067;-69
2020/12/10 11:07:00;;;;;;;53.30;22.20;;;;;;;-1.51;100.00;100335.41;4986694;28;20054;-69
2020/12/10 11:09:27;;;;;;;52.57;22.77;;;;;;;-1.48;100.00;100339.75;4986867;28;20065;-70